• Join FlightAware (Why Join?)
  • Login
  • US Flag 
02:08PM EDT


 

Airport Tracker/Info


-or-


 

Live Flight TrackerFlight Track Log ✈ N1926A ✈ 27-Apr-2013 ✈ 41A - KJKA

Flight Track Log - Related Links

Times and Time Zones

All times are in EDT time to prevent confusion due to time zone crossing. See the N1926A flight status page for this flight to view local times or setup timezone preferences in your user account.

Time Position Orientation Groundspeed Altitude Reporting Facility
EDT Latitude Longitude Course Direction KTS MPH feet Rate Location/Type
01:41PM 32.4556 -85.8531 180° South 153 176 3,900  Level Atlanta Center
01:42PM 32.4117 -85.8472 174° South 153 176 6,300 2,100 Climbing Atlanta Center
01:43PM 32.3658 -85.8439 176° South 174 200 8,100 1,620 Climbing Atlanta Center
01:44PM 32.3075 -85.8428 179° South 174 200 9,600 900 Climbing Atlanta Center
01:45PM 32.2450 -85.8339 173° South 202 232 10,000 240 Climbing Atlanta Center
01:46PM 32.1761 -85.8278 176° South 231 266 10,100  Climbing Atlanta Center
01:47PM 32.2159 -85.8648 180° South  Level Estimated
01:47PM 32.1136 -85.8217 175° South 242 278 10,000  Level Atlanta Center
01:48PM 32.0447 -85.8178 177° South 252 290 10,100 300 Climbing Atlanta Center
01:49PM 31.9781 -85.8117 176° South 252 290 10,700 420 Climbing Atlanta Center
01:50PM 31.9114 -85.8078 177° South 252 290 11,000 120 Climbing Atlanta Center
01:51PM 31.8406 -85.8064 179° South 252 290 11,000  Level Atlanta Center
01:52PM 31.7842 -85.8108 184° South 264 304 11,000  Level Jacksonville Center
01:53PM 31.7111 -85.8133 182° South 269 310 11,000  Level Jacksonville Center
01:54PM 31.6400 -85.8158 182° South 269 310 11,000  Level Jacksonville Center
01:55PM 31.5711 -85.8186 182° South 269 310 11,000  Level Jacksonville Center
01:56PM 31.5003 -85.8189 180° South 269 310 11,000  Level Jacksonville Center
01:57PM 31.4550 -85.8711 225° Southwest 233 268 11,000  Level Jacksonville Center
01:58PM 31.4200 -85.9406 239° Southwest 229 264 11,000  Level Jacksonville Center
01:59PM 31.3831 -86.0075 237° Southwest 241 277 11,000  Level Jacksonville Center
02:00PM 31.3356 -86.0667 227° Southwest 246 283 11,000  Level Jacksonville Center
02:01PM 31.2903 -86.1233 227° Southwest 246 283 11,000  Level Jacksonville Center
02:02PM 31.2469 -86.1850 231° Southwest 252 290 11,000  Level Jacksonville Center
02:03PM 31.2014 -86.2492 230° Southwest 252 290 11,000  Level Jacksonville Center
02:04PM 31.1622 -86.3083 232° Southwest 252 290 11,000  Level Jacksonville Center
02:05PM 31.1250 -86.3750 237° Southwest 252 290 11,000  Level Jacksonville Center
02:06PM 31.0897 -86.4464 240° Southwest 252 290 11,000  Level Jacksonville Center
02:07PM 31.0525 -86.5056 234° Southwest 246 283 11,000 -60 Level Jacksonville Center
02:09PM 30.9950 -86.6125 238° Southwest 246 283 10,900  Descending Jacksonville Center
02:09PM 30.9692 -86.6453 227° Southwest 251 289 11,000  Climbing Jacksonville Center
02:09PM 30.9536 -86.6739 238° Southwest 247 284 10,900  Descending Jacksonville Center
02:10PM 30.9361 -86.7047 237° Southwest 259 298 11,000  Climbing Jacksonville Center
02:10PM 30.9100 -86.7350 225° Southwest 247 284 10,900  Descending Jacksonville Center
02:11PM 30.8944 -86.7683 241° Southwest 259 298 11,000  Climbing Jacksonville Center
02:12PM 30.8683 -86.7986 225° Southwest 248 285 10,900 -300 Descending Jacksonville Center
02:12PM 30.8486 -86.8292 233° Southwest 259 298 10,700 -900 Descending Jacksonville Center
02:13PM 30.8225 -86.8644 229° Southwest 266 306 10,000 -1,140 Descending Jacksonville Center
02:13PM 30.8006 -86.8975 232° Southwest 265 305 9,600 -900 Descending Jacksonville Center
02:14PM 30.7786 -86.9303 232° Southwest 266 306 9,100 -1,320 Descending Jacksonville Center
02:14PM 30.7506 -86.9653 227° Southwest 265 305 8,300 -2,220 Descending Jacksonville Center
02:15PM 30.7325 -87.0008 239° Southwest 280 322 6,900 -2,340 Descending Jacksonville Center
02:15PM 30.7106 -87.0336 232° Southwest 270 311 6,000 -1,800 Descending Jacksonville Center
02:16PM 30.6906 -87.0714 238° Southwest 282 325 5,100 -1,740 Descending Jacksonville Center
02:16PM 30.6644 -87.1067 229° Southwest 275 316 4,300 -1,140 Descending Jacksonville Center
02:17PM 30.6425 -87.1417 234° Southwest 270 311 4,000 -300 Descending Jacksonville Center
02:17PM 30.6289 -87.1750 245° Southwest 270 311 4,000  Level Jacksonville Center
02:18PM 30.6047 -87.2078 229° Southwest 231 266 4,000  Level Jacksonville Center
02:18PM 30.5892 -87.2358 237° Southwest 257 296 4,000  Level Jacksonville Center
02:19PM 30.5669 -87.2711 234° Southwest 234 269 4,000 -120 Level Jacksonville Center
02:20PM 30.5253 -87.3294 230° Southwest 231 266 3,900 -300 Descending Jacksonville Center
02:21PM 30.4756 -87.3825 223° Southwest 240 276 3,400 -480 Descending Jacksonville Center
02:22PM 30.4214 -87.4378 221° Southwest 239 275 3,000 -660 Descending Jacksonville Center
02:23PM 30.3942 -87.4992 243° Southwest 214 246 2,100 -840 Descending Jacksonville Center
02:24PM 30.3647 -87.5578 240° Southwest 196 226 1,400 -720 Descending Jacksonville Center